sensor_id;sensor_type;location;lat;lon;timestamp;temperature;humidity
16134;DHT22;8172;45.018;5.972;2023-04-23T00:01:48;12.00;57.70
16134;DHT22;8172;45.018;5.972;2023-04-23T00:06:58;11.90;58.40
16134;DHT22;8172;45.018;5.972;2023-04-23T00:12:08;11.90;59.10
16134;DHT22;8172;45.018;5.972;2023-04-23T00:17:17;11.90;60.00
16134;DHT22;8172;45.018;5.972;2023-04-23T00:22:25;11.80;60.10
16134;DHT22;8172;45.018;5.972;2023-04-23T00:27:34;11.70;61.00
16134;DHT22;8172;45.018;5.972;2023-04-23T00:32:42;11.60;61.40
16134;DHT22;8172;45.018;5.972;2023-04-23T00:37:54;11.40;62.10
16134;DHT22;8172;45.018;5.972;2023-04-23T00:43:06;11.30;62.90
16134;DHT22;8172;45.018;5.972;2023-04-23T00:48:16;11.20;63.40
16134;DHT22;8172;45.018;5.972;2023-04-23T00:53:26;11.10;63.80
16134;DHT22;8172;45.018;5.972;2023-04-23T00:58:36;11.10;64.10
16134;DHT22;8172;45.018;5.972;2023-04-23T01:03:44;11.00;64.40
16134;DHT22;8172;45.018;5.972;2023-04-23T01:08:52;10.90;65.60
16134;DHT22;8172;45.018;5.972;2023-04-23T01:14:00;10.90;65.40
16134;DHT22;8172;45.018;5.972;2023-04-23T01:19:09;10.90;65.50
16134;DHT22;8172;45.018;5.972;2023-04-23T01:24:18;10.90;65.60
16134;DHT22;8172;45.018;5.972;2023-04-23T01:29:26;10.90;65.80
16134;DHT22;8172;45.018;5.972;2023-04-23T01:34:36;10.70;66.40
16134;DHT22;8172;45.018;5.972;2023-04-23T01:39:45;10.70;66.30
16134;DHT22;8172;45.018;5.972;2023-04-23T01:44:53;10.80;66.50
16134;DHT22;8172;45.018;5.972;2023-04-23T01:50:01;10.80;66.50
16134;DHT22;8172;45.018;5.972;2023-04-23T01:55:10;10.90;66.40
16134;DHT22;8172;45.018;5.972;2023-04-23T02:00:20;10.80;67.00
16134;DHT22;8172;45.018;5.972;2023-04-23T02:05:29;10.70;67.10
16134;DHT22;8172;45.018;5.972;2023-04-23T02:10:40;10.60;67.10
16134;DHT22;8172;45.018;5.972;2023-04-23T02:15:49;10.70;67.00
16134;DHT22;8172;45.018;5.972;2023-04-23T02:20:56;10.70;67.20
16134;DHT22;8172;45.018;5.972;2023-04-23T02:26:05;10.70;67.10
16134;DHT22;8172;45.018;5.972;2023-04-23T02:31:13;10.60;67.40
16134;DHT22;8172;45.018;5.972;2023-04-23T02:36:22;10.70;67.40
16134;DHT22;8172;45.018;5.972;2023-04-23T02:41:31;10.70;67.60
16134;DHT22;8172;45.018;5.972;2023-04-23T02:46:40;10.80;67.60
16134;DHT22;8172;45.018;5.972;2023-04-23T02:51:48;10.80;67.50
16134;DHT22;8172;45.018;5.972;2023-04-23T02:56:59;10.80;67.60
16134;DHT22;8172;45.018;5.972;2023-04-23T03:02:07;10.80;67.80
16134;DHT22;8172;45.018;5.972;2023-04-23T03:07:16;10.80;67.90
16134;DHT22;8172;45.018;5.972;2023-04-23T03:12:25;10.80;67.80
16134;DHT22;8172;45.018;5.972;2023-04-23T03:17:35;10.80;68.00
16134;DHT22;8172;45.018;5.972;2023-04-23T03:22:46;10.80;68.10
16134;DHT22;8172;45.018;5.972;2023-04-23T03:27:55;10.70;68.40
16134;DHT22;8172;45.018;5.972;2023-04-23T03:33:03;10.70;68.40
16134;DHT22;8172;45.018;5.972;2023-04-23T03:38:12;10.60;68.60
16134;DHT22;8172;45.018;5.972;2023-04-23T03:43:20;10.60;68.90
16134;DHT22;8172;45.018;5.972;2023-04-23T03:48:29;10.60;69.00
16134;DHT22;8172;45.018;5.972;2023-04-23T03:53:40;10.60;69.00
16134;DHT22;8172;45.018;5.972;2023-04-23T03:58:49;10.60;69.10
16134;DHT22;8172;45.018;5.972;2023-04-23T04:03:58;10.60;69.20
16134;DHT22;8172;45.018;5.972;2023-04-23T04:09:08;10.60;69.20
16134;DHT22;8172;45.018;5.972;2023-04-23T04:14:15;10.60;69.30
16134;DHT22;8172;45.018;5.972;2023-04-23T04:19:24;10.60;69.30
16134;DHT22;8172;45.018;5.972;2023-04-23T04:24:32;10.60;69.40
16134;DHT22;8172;45.018;5.972;2023-04-23T04:29:40;10.60;69.60
16134;DHT22;8172;45.018;5.972;2023-04-23T04:34:48;10.60;69.40
16134;DHT22;8172;45.018;5.972;2023-04-23T04:39:57;10.60;69.50
16134;DHT22;8172;45.018;5.972;2023-04-23T04:45:07;10.50;69.80
16134;DHT22;8172;45.018;5.972;2023-04-23T04:50:16;10.50;69.90
16134;DHT22;8172;45.018;5.972;2023-04-23T04:55:24;10.50;69.90
16134;DHT22;8172;45.018;5.972;2023-04-23T05:00:33;10.50;69.90
16134;DHT22;8172;45.018;5.972;2023-04-23T05:05:41;10.60;70.10
16134;DHT22;8172;45.018;5.972;2023-04-23T05:10:49;10.60;70.20
16134;DHT22;8172;45.018;5.972;2023-04-23T05:15:58;10.60;70.10
16134;DHT22;8172;45.018;5.972;2023-04-23T05:21:06;10.50;70.30
16134;DHT22;8172;45.018;5.972;2023-04-23T05:26:15;10.50;70.50
16134;DHT22;8172;45.018;5.972;2023-04-23T05:31:24;10.50;70.70
16134;DHT22;8172;45.018;5.972;2023-04-23T05:36:34;10.50;70.70
16134;DHT22;8172;45.018;5.972;2023-04-23T05:41:43;10.60;70.60
16134;DHT22;8172;45.018;5.972;2023-04-23T05:46:52;10.60;70.60
16134;DHT22;8172;45.018;5.972;2023-04-23T05:52:01;10.60;70.80
16134;DHT22;8172;45.018;5.972;2023-04-23T05:57:11;10.70;71.00
16134;DHT22;8172;45.018;5.972;2023-04-23T06:02:19;10.70;70.90
16134;DHT22;8172;45.018;5.972;2023-04-23T06:07:30;10.70;70.90
16134;DHT22;8172;45.018;5.972;2023-04-23T06:12:39;10.80;70.90
16134;DHT22;8172;45.018;5.972;2023-04-23T06:17:48;10.80;71.00
16134;DHT22;8172;45.018;5.972;2023-04-23T06:22:57;10.80;70.80
16134;DHT22;8172;45.018;5.972;2023-04-23T06:28:07;10.90;71.10
16134;DHT22;8172;45.018;5.972;2023-04-23T06:33:19;10.90;71.10
16134;DHT22;8172;45.018;5.972;2023-04-23T06:38:28;10.90;71.10
16134;DHT22;8172;45.018;5.972;2023-04-23T06:43:39;11.00;70.70
16134;DHT22;8172;45.018;5.972;2023-04-23T06:48:50;11.00;70.90
16134;DHT22;8172;45.018;5.972;2023-04-23T06:54:00;11.10;70.30
16134;DHT22;8172;45.018;5.972;2023-04-23T06:59:09;11.10;69.80
16134;DHT22;8172;45.018;5.972;2023-04-23T07:04:19;11.00;69.70
16134;DHT22;8172;45.018;5.972;2023-04-23T07:09:28;11.00;69.80
16134;DHT22;8172;45.018;5.972;2023-04-23T07:14:38;11.10;70.00
16134;DHT22;8172;45.018;5.972;2023-04-23T07:19:50;11.20;70.00
16134;DHT22;8172;45.018;5.972;2023-04-23T07:24:59;11.20;69.60
16134;DHT22;8172;45.018;5.972;2023-04-23T07:30:08;11.20;69.10
16134;DHT22;8172;45.018;5.972;2023-04-23T07:35:17;11.20;69.20
16134;DHT22;8172;45.018;5.972;2023-04-23T07:40:27;11.30;68.80
16134;DHT22;8172;45.018;5.972;2023-04-23T07:45:35;11.30;68.70
16134;DHT22;8172;45.018;5.972;2023-04-23T07:50:45;11.30;68.30
16134;DHT22;8172;45.018;5.972;2023-04-23T07:55:57;11.30;68.30
16134;DHT22;8172;45.018;5.972;2023-04-23T08:01:07;11.40;68.20
16134;DHT22;8172;45.018;5.972;2023-04-23T08:06:16;11.40;67.70
16134;DHT22;8172;45.018;5.972;2023-04-23T08:11:25;11.40;67.30
16134;DHT22;8172;45.018;5.972;2023-04-23T08:16:36;11.40;67.50
16134;DHT22;8172;45.018;5.972;2023-04-23T08:21:47;11.50;67.20
16134;DHT22;8172;45.018;5.972;2023-04-23T08:26:56;11.50;66.60
16134;DHT22;8172;45.018;5.972;2023-04-23T08:32:06;11.60;66.60
16134;DHT22;8172;45.018;5.972;2023-04-23T08:37:16;11.70;66.70
16134;DHT22;8172;45.018;5.972;2023-04-23T08:47:39;11.90;65.70
16134;DHT22;8172;45.018;5.972;2023-04-23T08:52:52;12.00;65.80
16134;DHT22;8172;45.018;5.972;2023-04-23T08:58:00;12.10;65.80
16134;DHT22;8172;45.018;5.972;2023-04-23T09:03:11;12.10;65.40
16134;DHT22;8172;45.018;5.972;2023-04-23T09:08:21;12.20;64.60
16134;DHT22;8172;45.018;5.972;2023-04-23T09:13:30;12.30;65.00
16134;DHT22;8172;45.018;5.972;2023-04-23T09:18:39;12.50;64.30
16134;DHT22;8172;45.018;5.972;2023-04-23T09:23:50;12.60;63.50
16134;DHT22;8172;45.018;5.972;2023-04-23T09:28:58;12.60;62.70
16134;DHT22;8172;45.018;5.972;2023-04-23T09:34:09;12.60;62.90
16134;DHT22;8172;45.018;5.972;2023-04-23T09:39:20;12.70;62.10
16134;DHT22;8172;45.018;5.972;2023-04-23T09:44:30;12.80;61.80
16134;DHT22;8172;45.018;5.972;2023-04-23T09:54:51;13.10;60.40
16134;DHT22;8172;45.018;5.972;2023-04-23T10:00:06;13.20;60.80
16134;DHT22;8172;45.018;5.972;2023-04-23T10:05:16;13.30;59.50
16134;DHT22;8172;45.018;5.972;2023-04-23T10:10:27;13.40;59.10
16134;DHT22;8172;45.018;5.972;2023-04-23T10:15:36;13.50;59.80
16134;DHT22;8172;45.018;5.972;2023-04-23T10:20:47;13.70;59.20
16134;DHT22;8172;45.018;5.972;2023-04-23T10:25:58;13.80;58.30
16134;DHT22;8172;45.018;5.972;2023-04-23T10:31:09;13.90;58.40
16134;DHT22;8172;45.018;5.972;2023-04-23T10:36:19;14.00;57.90
16134;DHT22;8172;45.018;5.972;2023-04-23T10:41:34;14.10;57.40
16134;DHT22;8172;45.018;5.972;2023-04-23T10:46:58;14.20;56.60
16134;DHT22;8172;45.018;5.972;2023-04-23T10:57:07;14.10;56.00
16134;DHT22;8172;45.018;5.972;2023-04-23T11:02:20;14.10;56.20
16134;DHT22;8172;45.018;5.972;2023-04-23T11:07:32;14.30;55.90
16134;DHT22;8172;45.018;5.972;2023-04-23T11:12:40;14.40;55.10
16134;DHT22;8172;45.018;5.972;2023-04-23T11:23:04;14.50;54.70
16134;DHT22;8172;45.018;5.972;2023-04-23T11:28:14;14.60;54.30
16134;DHT22;8172;45.018;5.972;2023-04-23T11:33:22;14.70;54.50
16134;DHT22;8172;45.018;5.972;2023-04-23T11:38:31;14.70;53.70
16134;DHT22;8172;45.018;5.972;2023-04-23T11:43:43;14.80;54.00
16134;DHT22;8172;45.018;5.972;2023-04-23T11:48:53;14.90;53.50
16134;DHT22;8172;45.018;5.972;2023-04-23T11:54:02;14.90;53.10
16134;DHT22;8172;45.018;5.972;2023-04-23T11:59:11;14.90;53.00
16134;DHT22;8172;45.018;5.972;2023-04-23T12:04:22;14.90;53.00
16134;DHT22;8172;45.018;5.972;2023-04-23T12:09:32;15.00;53.10
16134;DHT22;8172;45.018;5.972;2023-04-23T12:14:46;15.00;52.90
16134;DHT22;8172;45.018;5.972;2023-04-23T12:19:57;15.10;52.10
16134;DHT22;8172;45.018;5.972;2023-04-23T12:25:08;15.00;52.20
16134;DHT22;8172;45.018;5.972;2023-04-23T12:30:18;14.90;52.30
16134;DHT22;8172;45.018;5.972;2023-04-23T12:40:37;14.90;52.30
16134;DHT22;8172;45.018;5.972;2023-04-23T12:45:46;14.80;51.80
16134;DHT22;8172;45.018;5.972;2023-04-23T12:50:54;14.70;52.30
16134;DHT22;8172;45.018;5.972;2023-04-23T12:56:03;14.70;52.00
16134;DHT22;8172;45.018;5.972;2023-04-23T13:01:11;14.70;52.10
16134;DHT22;8172;45.018;5.972;2023-04-23T13:06:19;14.70;52.00
16134;DHT22;8172;45.018;5.972;2023-04-23T13:11:28;14.70;51.90
16134;DHT22;8172;45.018;5.972;2023-04-23T13:16:37;14.70;51.80
16134;DHT22;8172;45.018;5.972;2023-04-23T13:21:46;14.60;51.60
16134;DHT22;8172;45.018;5.972;2023-04-23T13:26:55;14.60;52.00
16134;DHT22;8172;45.018;5.972;2023-04-23T13:32:04;14.50;51.50
16134;DHT22;8172;45.018;5.972;2023-04-23T13:37:13;14.60;51.40
16134;DHT22;8172;45.018;5.972;2023-04-23T13:42:21;14.60;51.20
16134;DHT22;8172;45.018;5.972;2023-04-23T13:47:29;14.50;51.10
16134;DHT22;8172;45.018;5.972;2023-04-23T13:52:39;14.50;52.00
16134;DHT22;8172;45.018;5.972;2023-04-23T13:57:47;14.50;51.90
16134;DHT22;8172;45.018;5.972;2023-04-23T14:02:56;14.40;51.90
16134;DHT22;8172;45.018;5.972;2023-04-23T14:08:06;14.40;52.00
16134;DHT22;8172;45.018;5.972;2023-04-23T14:13:14;14.30;51.90
16134;DHT22;8172;45.018;5.972;2023-04-23T14:18:25;14.10;51.90
16134;DHT22;8172;45.018;5.972;2023-04-23T14:28:48;13.90;53.30
16134;DHT22;8172;45.018;5.972;2023-04-23T14:33:56;13.80;54.60
16134;DHT22;8172;45.018;5.972;2023-04-23T14:39:05;13.70;55.90
16134;DHT22;8172;45.018;5.972;2023-04-23T14:44:14;13.60;56.80
16134;DHT22;8172;45.018;5.972;2023-04-23T14:49:23;13.40;57.80
16134;DHT22;8172;45.018;5.972;2023-04-23T14:54:31;13.30;58.20
16134;DHT22;8172;45.018;5.972;2023-04-23T14:59:39;13.30;58.60
16134;DHT22;8172;45.018;5.972;2023-04-23T15:04:48;13.20;59.00
16134;DHT22;8172;45.018;5.972;2023-04-23T15:09:56;13.20;59.50
16134;DHT22;8172;45.018;5.972;2023-04-23T15:15:04;13.00;60.50
16134;DHT22;8172;45.018;5.972;2023-04-23T15:20:13;13.00;60.70
16134;DHT22;8172;45.018;5.972;2023-04-23T15:25:22;13.00;60.90
16134;DHT22;8172;45.018;5.972;2023-04-23T15:30:32;12.90;61.30
16134;DHT22;8172;45.018;5.972;2023-04-23T15:35:40;12.90;61.60
16134;DHT22;8172;45.018;5.972;2023-04-23T15:40:48;12.90;61.70
16134;DHT22;8172;45.018;5.972;2023-04-23T15:45:56;12.90;61.80
16134;DHT22;8172;45.018;5.972;2023-04-23T15:51:05;12.90;62.10
16134;DHT22;8172;45.018;5.972;2023-04-23T15:56:13;12.80;62.40
16134;DHT22;8172;45.018;5.972;2023-04-23T16:01:21;12.80;62.90
16134;DHT22;8172;45.018;5.972;2023-04-23T16:06:30;12.70;63.10
16134;DHT22;8172;45.018;5.972;2023-04-23T16:11:38;12.60;63.00
16134;DHT22;8172;45.018;5.972;2023-04-23T16:16:47;12.60;63.10
16134;DHT22;8172;45.018;5.972;2023-04-23T16:21:57;12.70;63.30
16134;DHT22;8172;45.018;5.972;2023-04-23T16:27:05;12.70;63.70
16134;DHT22;8172;45.018;5.972;2023-04-23T16:32:14;12.60;63.90
16134;DHT22;8172;45.018;5.972;2023-04-23T16:37:22;12.40;64.20
16134;DHT22;8172;45.018;5.972;2023-04-23T16:42:30;12.40;64.90
16134;DHT22;8172;45.018;5.972;2023-04-23T16:47:38;12.30;65.50
16134;DHT22;8172;45.018;5.972;2023-04-23T16:52:48;12.10;64.20
16134;DHT22;8172;45.018;5.972;2023-04-23T16:57:57;11.70;63.10
16134;DHT22;8172;45.018;5.972;2023-04-23T17:03:08;11.40;63.80
16134;DHT22;8172;45.018;5.972;2023-04-23T17:08:18;11.10;63.90
16134;DHT22;8172;45.018;5.972;2023-04-23T17:13:26;11.00;63.90
16134;DHT22;8172;45.018;5.972;2023-04-23T17:18:34;10.90;65.50
16134;DHT22;8172;45.018;5.972;2023-04-23T17:23:42;10.90;66.10
16134;DHT22;8172;45.018;5.972;2023-04-23T17:28:51;10.90;66.20
16134;DHT22;8172;45.018;5.972;2023-04-23T17:33:59;10.90;65.80
16134;DHT22;8172;45.018;5.972;2023-04-23T17:39:07;10.90;66.80
16134;DHT22;8172;45.018;5.972;2023-04-23T17:44:15;11.00;67.00
16134;DHT22;8172;45.018;5.972;2023-04-23T17:49:23;11.00;66.90
16134;DHT22;8172;45.018;5.972;2023-04-23T17:54:31;11.00;67.00
16134;DHT22;8172;45.018;5.972;2023-04-23T17:59:39;10.90;66.90
16134;DHT22;8172;45.018;5.972;2023-04-23T18:04:48;10.90;67.20
16134;DHT22;8172;45.018;5.972;2023-04-23T18:09:56;10.80;66.40
16134;DHT22;8172;45.018;5.972;2023-04-23T18:15:04;10.60;65.70
16134;DHT22;8172;45.018;5.972;2023-04-23T18:20:12;10.40;65.60
16134;DHT22;8172;45.018;5.972;2023-04-23T18:25:21;10.20;66.70
16134;DHT22;8172;45.018;5.972;2023-04-23T18:30:31;9.90;66.90
16134;DHT22;8172;45.018;5.972;2023-04-23T18:35:40;9.70;67.60
16134;DHT22;8172;45.018;5.972;2023-04-23T18:40:49;9.60;67.80
16134;DHT22;8172;45.018;5.972;2023-04-23T18:45:57;9.60;67.80
16134;DHT22;8172;45.018;5.972;2023-04-23T18:56:16;9.50;67.70
16134;DHT22;8172;45.018;5.972;2023-04-23T19:01:24;9.40;67.90
16134;DHT22;8172;45.018;5.972;2023-04-23T19:06:33;9.40;68.10
16134;DHT22;8172;45.018;5.972;2023-04-23T19:11:41;9.50;68.10
16134;DHT22;8172;45.018;5.972;2023-04-23T19:16:49;9.60;68.10
16134;DHT22;8172;45.018;5.972;2023-04-23T19:21:57;9.60;67.90
16134;DHT22;8172;45.018;5.972;2023-04-23T19:27:06;9.60;68.20
16134;DHT22;8172;45.018;5.972;2023-04-23T19:32:14;9.70;68.10
16134;DHT22;8172;45.018;5.972;2023-04-23T19:37:22;9.70;68.10
16134;DHT22;8172;45.018;5.972;2023-04-23T19:42:30;9.80;67.90
16134;DHT22;8172;45.018;5.972;2023-04-23T19:47:38;9.70;67.70
16134;DHT22;8172;45.018;5.972;2023-04-23T19:52:47;9.70;67.70
16134;DHT22;8172;45.018;5.972;2023-04-23T19:57:55;9.60;67.50
16134;DHT22;8172;45.018;5.972;2023-04-23T20:03:04;9.50;67.50
16134;DHT22;8172;45.018;5.972;2023-04-23T20:08:13;9.40;67.10
16134;DHT22;8172;45.018;5.972;2023-04-23T20:13:23;9.20;67.50
16134;DHT22;8172;45.018;5.972;2023-04-23T20:18:30;9.10;67.60
16134;DHT22;8172;45.018;5.972;2023-04-23T20:23:40;9.10;67.70
16134;DHT22;8172;45.018;5.972;2023-04-23T20:28:49;9.10;67.60
16134;DHT22;8172;45.018;5.972;2023-04-23T20:33:57;9.00;67.80
16134;DHT22;8172;45.018;5.972;2023-04-23T20:39:05;9.00;67.90
16134;DHT22;8172;45.018;5.972;2023-04-23T20:44:13;8.90;68.20
16134;DHT22;8172;45.018;5.972;2023-04-23T20:49:21;9.00;68.40
16134;DHT22;8172;45.018;5.972;2023-04-23T20:54:31;9.00;68.40
16134;DHT22;8172;45.018;5.972;2023-04-23T20:59:40;9.00;68.40
16134;DHT22;8172;45.018;5.972;2023-04-23T21:04:49;9.00;68.50
16134;DHT22;8172;45.018;5.972;2023-04-23T21:09:58;9.10;68.50
16134;DHT22;8172;45.018;5.972;2023-04-23T21:15:07;8.90;68.40
16134;DHT22;8172;45.018;5.972;2023-04-23T21:20:15;8.70;68.80
16134;DHT22;8172;45.018;5.972;2023-04-23T21:25:25;8.70;69.10
16134;DHT22;8172;45.018;5.972;2023-04-23T21:35:44;8.90;69.60
16134;DHT22;8172;45.018;5.972;2023-04-23T21:40:52;9.00;69.60
16134;DHT22;8172;45.018;5.972;2023-04-23T21:46:00;9.00;69.50
16134;DHT22;8172;45.018;5.972;2023-04-23T21:51:09;9.10;69.40
16134;DHT22;8172;45.018;5.972;2023-04-23T21:56:17;9.10;69.50
16134;DHT22;8172;45.018;5.972;2023-04-23T22:01:25;9.10;69.70
16134;DHT22;8172;45.018;5.972;2023-04-23T22:06:33;9.10;69.70
16134;DHT22;8172;45.018;5.972;2023-04-23T22:11:41;9.10;69.70
16134;DHT22;8172;45.018;5.972;2023-04-23T22:16:52;9.20;69.70
16134;DHT22;8172;45.018;5.972;2023-04-23T22:22:02;9.10;69.60
16134;DHT22;8172;45.018;5.972;2023-04-23T22:27:14;9.00;69.80
16134;DHT22;8172;45.018;5.972;2023-04-23T22:32:24;9.00;70.00
16134;DHT22;8172;45.018;5.972;2023-04-23T22:37:35;9.00;69.60
16134;DHT22;8172;45.018;5.972;2023-04-23T22:42:43;8.90;69.70
16134;DHT22;8172;45.018;5.972;2023-04-23T22:47:51;8.80;69.60
16134;DHT22;8172;45.018;5.972;2023-04-23T22:52:59;8.80;69.90
16134;DHT22;8172;45.018;5.972;2023-04-23T22:58:08;8.90;70.00
16134;DHT22;8172;45.018;5.972;2023-04-23T23:03:16;8.90;69.90
16134;DHT22;8172;45.018;5.972;2023-04-23T23:08:24;8.90;69.80
16134;DHT22;8172;45.018;5.972;2023-04-23T23:13:32;8.90;69.60
16134;DHT22;8172;45.018;5.972;2023-04-23T23:18:40;8.90;69.70
16134;DHT22;8172;45.018;5.972;2023-04-23T23:23:48;8.90;69.70
16134;DHT22;8172;45.018;5.972;2023-04-23T23:28:55;8.90;69.90
16134;DHT22;8172;45.018;5.972;2023-04-23T23:34:03;8.80;69.90
16134;DHT22;8172;45.018;5.972;2023-04-23T23:39:11;8.90;70.00
16134;DHT22;8172;45.018;5.972;2023-04-23T23:44:21;8.90;70.10
16134;DHT22;8172;45.018;5.972;2023-04-23T23:49:28;8.90;70.00
16134;DHT22;8172;45.018;5.972;2023-04-23T23:54:36;8.90;70.00
16134;DHT22;8172;45.018;5.972;2023-04-23T23:59:44;8.90;70.00
